sensor_id;sensor_type;location;lat;lon;timestamp;temperature;humidity
18268;DHT22;9260;49.998;19.880;2023-05-10T00:06:40;1.90;1.00
18268;DHT22;9260;49.998;19.880;2023-05-10T00:16:44;2.30;1.00
18268;DHT22;9260;49.998;19.880;2023-05-10T00:26:48;1.80;1.00
18268;DHT22;9260;49.998;19.880;2023-05-10T00:36:51;1.60;1.00
18268;DHT22;9260;49.998;19.880;2023-05-10T00:46:56;1.20;1.00
18268;DHT22;9260;49.998;19.880;2023-05-10T00:57:00;1.00;1.00
18268;DHT22;9260;49.998;19.880;2023-05-10T01:07:04;0.80;1.00
18268;DHT22;9260;49.998;19.880;2023-05-10T01:17:08;0.40;1.00
18268;DHT22;9260;49.998;19.880;2023-05-10T01:27:28;0.20;1.00
18268;DHT22;9260;49.998;19.880;2023-05-10T01:37:56;0.10;1.00
18268;DHT22;9260;49.998;19.880;2023-05-10T01:48:04;-0.10;1.00
18268;DHT22;9260;49.998;19.880;2023-05-10T01:58:21;0.00;1.00
18268;DHT22;9260;49.998;19.880;2023-05-10T02:08:25;-0.40;1.00
18268;DHT22;9260;49.998;19.880;2023-05-10T02:18:30;-0.30;1.00
18268;DHT22;9260;49.998;19.880;2023-05-10T02:28:36;-0.70;1.00
18268;DHT22;9260;49.998;19.880;2023-05-10T02:38:41;-0.50;1.00
18268;DHT22;9260;49.998;19.880;2023-05-10T02:48:44;-0.80;1.00
18268;DHT22;9260;49.998;19.880;2023-05-10T02:58:49;-0.90;1.00
18268;DHT22;9260;49.998;19.880;2023-05-10T03:08:53;-1.20;1.00
18268;DHT22;9260;49.998;19.880;2023-05-10T03:19:00;-1.00;1.00
18268;DHT22;9260;49.998;19.880;2023-05-10T03:29:07;-0.90;1.00
18268;DHT22;9260;49.998;19.880;2023-05-10T03:39:13;-0.50;1.00
18268;DHT22;9260;49.998;19.880;2023-05-10T03:49:22;-0.80;1.00
18268;DHT22;9260;49.998;19.880;2023-05-10T03:59:27;-0.40;1.00
18268;DHT22;9260;49.998;19.880;2023-05-10T04:09:31;-0.40;1.00
18268;DHT22;9260;49.998;19.880;2023-05-10T04:19:36;0.00;1.00
18268;DHT22;9260;49.998;19.880;2023-05-10T04:29:39;0.90;1.00
18268;DHT22;9260;49.998;19.880;2023-05-10T04:39:44;1.20;1.00
18268;DHT22;9260;49.998;19.880;2023-05-10T04:49:47;1.90;1.00
18268;DHT22;9260;49.998;19.880;2023-05-10T04:59:52;2.80;1.00
18268;DHT22;9260;49.998;19.880;2023-05-10T05:09:55;3.30;1.00
18268;DHT22;9260;49.998;19.880;2023-05-10T05:20:00;4.20;1.00
18268;DHT22;9260;49.998;19.880;2023-05-10T05:30:03;4.80;1.00
18268;DHT22;9260;49.998;19.880;2023-05-10T05:40:11;5.60;1.00
18268;DHT22;9260;49.998;19.880;2023-05-10T05:50:15;7.10;1.00
18268;DHT22;9260;49.998;19.880;2023-05-10T06:00:20;9.40;1.00
18268;DHT22;9260;49.998;19.880;2023-05-10T06:10:24;9.20;1.00
18268;DHT22;9260;49.998;19.880;2023-05-10T06:20:29;9.50;1.00
18268;DHT22;9260;49.998;19.880;2023-05-10T06:30:33;10.00;1.00
18268;DHT22;9260;49.998;19.880;2023-05-10T06:40:37;10.80;1.00
18268;DHT22;9260;49.998;19.880;2023-05-10T06:50:44;11.30;1.00
18268;DHT22;9260;49.998;19.880;2023-05-10T07:00:49;12.10;99.90
18268;DHT22;9260;49.998;19.880;2023-05-10T07:10:52;13.50;99.90
18268;DHT22;9260;49.998;19.880;2023-05-10T07:20:57;18.20;99.90
18268;DHT22;9260;49.998;19.880;2023-05-10T07:31:01;23.80;99.90
18268;DHT22;9260;49.998;19.880;2023-05-10T07:41:05;28.40;99.90
18268;DHT22;9260;49.998;19.880;2023-05-10T07:51:09;32.40;99.90
18268;DHT22;9260;49.998;19.880;2023-05-10T08:01:13;35.40;99.90
18268;DHT22;9260;49.998;19.880;2023-05-10T08:11:16;37.00;99.90
18268;DHT22;9260;49.998;19.880;2023-05-10T08:21:21;38.80;99.90
18268;DHT22;9260;49.998;19.880;2023-05-10T08:31:24;40.10;99.90
18268;DHT22;9260;49.998;19.880;2023-05-10T08:41:29;42.20;99.90
18268;DHT22;9260;49.998;19.880;2023-05-10T08:51:36;43.20;99.90
18268;DHT22;9260;49.998;19.880;2023-05-10T09:01:41;45.40;99.90
18268;DHT22;9260;49.998;19.880;2023-05-10T09:11:45;44.50;99.90
18268;DHT22;9260;49.998;19.880;2023-05-10T09:21:50;45.30;99.90
18268;DHT22;9260;49.998;19.880;2023-05-10T09:31:53;47.10;99.90
18268;DHT22;9260;49.998;19.880;2023-05-10T09:41:58;47.50;99.90
18268;DHT22;9260;49.998;19.880;2023-05-10T09:52:03;46.00;99.90
18268;DHT22;9260;49.998;19.880;2023-05-10T10:02:09;46.50;99.90
18268;DHT22;9260;49.998;19.880;2023-05-10T10:12:12;49.60;1.00
18268;DHT22;9260;49.998;19.880;2023-05-10T10:22:17;48.50;1.00
18268;DHT22;9260;49.998;19.880;2023-05-10T10:32:22;51.50;1.00
18268;DHT22;9260;49.998;19.880;2023-05-10T10:42:46;49.20;1.00
18268;DHT22;9260;49.998;19.880;2023-05-10T10:52:51;50.30;1.00
18268;DHT22;9260;49.998;19.880;2023-05-10T11:02:57;50.60;1.00
18268;DHT22;9260;49.998;19.880;2023-05-10T11:13:02;49.90;1.00
18268;DHT22;9260;49.998;19.880;2023-05-10T11:23:17;43.90;99.90
18268;DHT22;9260;49.998;19.880;2023-05-10T11:33:21;45.40;99.90
18268;DHT22;9260;49.998;19.880;2023-05-10T11:43:26;45.50;99.90
18268;DHT22;9260;49.998;19.880;2023-05-10T11:53:32;47.60;99.90
18268;DHT22;9260;49.998;19.880;2023-05-10T12:03:37;48.60;1.00
18268;DHT22;9260;49.998;19.880;2023-05-10T12:13:41;45.70;99.90
18268;DHT22;9260;49.998;19.880;2023-05-10T12:23:49;47.70;99.90
18268;DHT22;9260;49.998;19.880;2023-05-10T12:33:54;47.20;99.90
18268;DHT22;9260;49.998;19.880;2023-05-10T12:43:58;46.50;99.90
18268;DHT22;9260;49.998;19.880;2023-05-10T12:54:02;42.70;99.90
18268;DHT22;9260;49.998;19.880;2023-05-10T13:04:06;40.40;99.90
18268;DHT22;9260;49.998;19.880;2023-05-10T13:14:10;34.90;99.90
18268;DHT22;9260;49.998;19.880;2023-05-10T13:24:14;26.20;99.90
18268;DHT22;9260;49.998;19.880;2023-05-10T13:34:18;22.60;99.90
18268;DHT22;9260;49.998;19.880;2023-05-10T13:44:24;21.40;99.90
18268;DHT22;9260;49.998;19.880;2023-05-10T13:54:27;20.70;99.90
18268;DHT22;9260;49.998;19.880;2023-05-10T14:04:33;20.00;99.90
18268;DHT22;9260;49.998;19.880;2023-05-10T14:14:37;20.00;99.90
18268;DHT22;9260;49.998;19.880;2023-05-10T14:24:42;20.00;99.90
18268;DHT22;9260;49.998;19.880;2023-05-10T14:34:50;19.60;99.90
18268;DHT22;9260;49.998;19.880;2023-05-10T14:44:54;19.10;99.90
18268;DHT22;9260;49.998;19.880;2023-05-10T14:55:07;18.90;99.90
18268;DHT22;9260;49.998;19.880;2023-05-10T15:05:13;19.00;99.90
18268;DHT22;9260;49.998;19.880;2023-05-10T15:15:17;18.40;99.90
18268;DHT22;9260;49.998;19.880;2023-05-10T15:25:22;18.30;99.90
18268;DHT22;9260;49.998;19.880;2023-05-10T15:35:25;18.10;99.90
18268;DHT22;9260;49.998;19.880;2023-05-10T15:45:30;17.80;99.90
18268;DHT22;9260;49.998;19.880;2023-05-10T15:55:37;17.60;99.90
18268;DHT22;9260;49.998;19.880;2023-05-10T16:05:41;17.40;99.90
18268;DHT22;9260;49.998;19.880;2023-05-10T16:15:45;17.00;99.90
18268;DHT22;9260;49.998;19.880;2023-05-10T16:25:50;16.80;99.90
18268;DHT22;9260;49.998;19.880;2023-05-10T16:35:53;16.60;99.90
18268;DHT22;9260;49.998;19.880;2023-05-10T16:45:58;16.10;99.90
18268;DHT22;9260;49.998;19.880;2023-05-10T16:56:01;15.50;99.90
18268;DHT22;9260;49.998;19.880;2023-05-10T17:06:06;14.90;99.90
18268;DHT22;9260;49.998;19.880;2023-05-10T17:16:10;14.60;99.90
18268;DHT22;9260;49.998;19.880;2023-05-10T17:26:15;14.30;99.90
18268;DHT22;9260;49.998;19.880;2023-05-10T17:36:18;13.70;99.90
18268;DHT22;9260;49.998;19.880;2023-05-10T17:46:23;13.60;99.90
18268;DHT22;9260;49.998;19.880;2023-05-10T17:56:26;13.30;99.90
18268;DHT22;9260;49.998;19.880;2023-05-10T18:06:31;12.90;1.00
18268;DHT22;9260;49.998;19.880;2023-05-10T18:16:37;12.80;99.90
18268;DHT22;9260;49.998;19.880;2023-05-10T18:26:42;12.80;99.90
18268;DHT22;9260;49.998;19.880;2023-05-10T18:36:45;12.80;99.90
18268;DHT22;9260;49.998;19.880;2023-05-10T18:46:50;12.60;99.90
18268;DHT22;9260;49.998;19.880;2023-05-10T18:56:55;12.40;99.90
18268;DHT22;9260;49.998;19.880;2023-05-10T19:07:00;11.90;99.90
18268;DHT22;9260;49.998;19.880;2023-05-10T19:17:04;11.40;99.90
18268;DHT22;9260;49.998;19.880;2023-05-10T19:27:08;11.00;99.90
18268;DHT22;9260;49.998;19.880;2023-05-10T19:37:12;10.60;99.90
18268;DHT22;9260;49.998;19.880;2023-05-10T19:47:16;10.10;99.90
18268;DHT22;9260;49.998;19.880;2023-05-10T19:57:20;9.70;1.00
18268;DHT22;9260;49.998;19.880;2023-05-10T20:07:24;9.30;1.00
18268;DHT22;9260;49.998;19.880;2023-05-10T20:17:28;8.90;1.00
18268;DHT22;9260;49.998;19.880;2023-05-10T20:27:32;8.80;1.00
18268;DHT22;9260;49.998;19.880;2023-05-10T20:37:36;8.30;1.00
18268;DHT22;9260;49.998;19.880;2023-05-10T20:47:41;8.50;1.00
18268;DHT22;9260;49.998;19.880;2023-05-10T20:57:44;8.10;1.00
18268;DHT22;9260;49.998;19.880;2023-05-10T21:07:49;8.00;1.00
18268;DHT22;9260;49.998;19.880;2023-05-10T21:17:54;7.70;1.00
18268;DHT22;9260;49.998;19.880;2023-05-10T21:27:59;8.00;1.00
18268;DHT22;9260;49.998;19.880;2023-05-10T21:38:02;7.20;1.00
18268;DHT22;9260;49.998;19.880;2023-05-10T21:48:07;7.10;1.00
18268;DHT22;9260;49.998;19.880;2023-05-10T21:58:10;6.80;1.00
18268;DHT22;9260;49.998;19.880;2023-05-10T22:08:15;6.70;1.00
18268;DHT22;9260;49.998;19.880;2023-05-10T22:18:18;6.60;1.00
18268;DHT22;9260;49.998;19.880;2023-05-10T22:28:23;6.30;1.00
18268;DHT22;9260;49.998;19.880;2023-05-10T22:38:26;6.00;1.00
18268;DHT22;9260;49.998;19.880;2023-05-10T22:48:31;5.80;1.00
18268;DHT22;9260;49.998;19.880;2023-05-10T22:58:35;5.40;1.00
18268;DHT22;9260;49.998;19.880;2023-05-10T23:08:40;4.90;1.00
18268;DHT22;9260;49.998;19.880;2023-05-10T23:18:43;4.60;1.00
18268;DHT22;9260;49.998;19.880;2023-05-10T23:28:48;4.50;1.00
18268;DHT22;9260;49.998;19.880;2023-05-10T23:38:51;4.20;1.00
18268;DHT22;9260;49.998;19.880;2023-05-10T23:48:56;4.10;1.00
18268;DHT22;9260;49.998;19.880;2023-05-10T23:58:59;3.80;1.00
